Time;durP1;ratioP1;P1;durP2;ratioP2;P2;SDS_P1;SDS_P2;PMS_P1;PMS_P2;Temp;Humidity;BMP_temperature;BMP_pressure;BME280_temperature;BME280_humidity;BME280_pressure;Samples;Min_cycle;Max_cycle;Signal;HPM_P1;HPM_P2
2022/02/19 00:03:12;;;;;;;45.57;42.90;;;;;;;5.22;100.00;100981.22;2014699;71;32847;-75
2022/02/19 00:08:58;;;;;;;44.23;41.40;;;;;;;5.23;100.00;100980.11;2001832;71;32876;-75
2022/02/19 00:14:42;;;;;;;44.77;41.70;;;;;;;5.28;100.00;100967.28;2014398;71;32852;-74
2022/02/19 00:20:34;;;;;;;44.27;41.43;;;;;;;5.30;100.00;100980.28;2016174;71;32906;-74
2022/02/19 00:26:19;;;;;;;42.57;40.00;;;;;;;5.36;100.00;100983.94;2004922;71;33076;-71
2022/02/19 00:32:04;;;;;;;41.80;39.20;;;;;;;5.28;100.00;101016.02;2007216;71;33301;-70
2022/02/19 00:37:48;;;;;;;38.03;35.37;;;;;;;5.45;100.00;101042.52;2012659;71;33373;-72
2022/02/19 00:43:32;;;;;;;35.93;34.00;;;;;;;5.44;100.00;101055.16;2005023;71;33356;-72
2022/02/19 00:49:16;;;;;;;34.90;32.60;;;;;;;5.45;100.00;101068.69;2010450;71;33340;-71
2022/02/19 00:55:02;;;;;;;37.07;34.47;;;;;;;5.43;100.00;101063.95;2005643;70;33234;-70
2022/02/19 01:04:09;;;;;;;39.37;36.80;;;;;;;5.37;100.00;101075.97;2015836;71;32802;-75
2022/02/19 01:09:52;;;;;;;39.40;36.63;;;;;;;5.44;100.00;101090.97;1997621;71;33399;-75
2022/02/19 01:15:36;;;;;;;36.10;33.50;;;;;;;5.51;100.00;101101.31;1990863;71;33864;-72
2022/02/19 01:21:21;;;;;;;37.00;34.27;;;;;;;5.54;100.00;101088.95;2017817;71;32844;-71
2022/02/19 01:27:06;;;;;;;37.13;34.73;;;;;;;5.56;100.00;101108.31;2007595;71;32849;-73
2022/02/19 01:32:51;;;;;;;38.20;35.57;;;;;;;5.55;100.00;101123.16;2009015;71;33304;-74
2022/02/19 01:38:35;;;;;;;40.57;37.97;;;;;;;5.52;100.00;101138.78;2000017;71;32854;-74
2022/02/19 01:44:19;;;;;;;42.03;39.33;;;;;;;5.39;100.00;101130.27;2015969;71;32837;-76
2022/02/19 01:50:04;;;;;;;46.13;43.47;;;;;;;5.30;100.00;101130.38;1997875;71;32889;-76
2022/02/19 01:55:49;;;;;;;50.80;48.17;;;;;;;5.16;100.00;101126.75;2007454;71;33223;-74
2022/02/19 02:01:33;;;;;;;51.00;47.80;;;;;;;5.19;100.00;101155.16;2015918;70;32830;-74
2022/02/19 02:07:18;;;;;;;52.87;49.60;;;;;;;5.13;100.00;101161.66;1996399;71;33322;-72
2022/02/19 02:13:04;;;;;;;54.40;51.00;;;;;;;5.05;100.00;101175.23;2005582;71;32747;-75
2022/02/19 02:18:49;;;;;;;55.17;51.57;;;;;;;5.00;100.00;101173.77;2003132;71;32825;-72
2022/02/19 02:24:38;;;;;;;56.57;53.33;;;;;;;5.04;100.00;101166.16;1999294;71;32803;-74
2022/02/19 02:30:24;;;;;;;59.80;56.13;;;;;;;5.03;100.00;101178.78;2007196;71;32919;-71
2022/02/19 02:36:08;;;;;;;58.17;54.77;;;;;;;4.97;100.00;101186.08;2016187;71;33364;-73
2022/02/19 02:41:52;;;;;;;57.40;54.03;;;;;;;5.02;100.00;101192.23;2000202;71;33292;-74
2022/02/19 02:47:41;;;;;;;59.50;56.30;;;;;;;5.03;100.00;101196.14;2016105;71;32932;-74
2022/02/19 02:53:26;;;;;;;63.93;59.97;;;;;;;5.03;100.00;101205.77;1994416;71;32835;-74
2022/02/19 02:59:10;;;;;;;62.47;58.93;;;;;;;4.96;100.00;101209.17;2012463;71;33376;-75
2022/02/19 03:04:54;;;;;;;63.53;59.53;;;;;;;4.95;100.00;101219.06;1962795;72;33283;-71
2022/02/19 03:10:38;;;;;;;66.73;63.20;;;;;;;4.89;100.00;101221.38;1994312;71;32841;-70
2022/02/19 03:16:22;;;;;;;72.60;68.50;;;;;;;4.88;100.00;101216.41;2014200;71;33347;-72
2022/02/19 03:22:07;;;;;;;73.73;69.53;;;;;;;4.84;100.00;101234.48;2010413;71;33294;-74
2022/02/19 03:27:52;;;;;;;77.40;72.67;;;;;;;4.83;100.00;101248.50;2008476;71;32832;-76
2022/02/19 03:33:36;;;;;;;73.80;69.40;;;;;;;4.78;100.00;101258.00;2010972;71;33373;-74
2022/02/19 03:39:21;;;;;;;75.00;70.80;;;;;;;4.73;100.00;101252.36;1997650;71;32892;-75
2022/02/19 03:45:08;;;;;;;73.37;69.00;;;;;;;4.72;100.00;101253.43;2016088;71;32850;-73
2022/02/19 03:50:52;;;;;;;74.40;69.77;;;;;;;4.69;100.00;101264.39;2008603;71;32845;-74
2022/02/19 03:56:37;;;;;;;73.10;68.77;;;;;;;4.64;100.00;101260.66;2016053;71;33276;-71
2022/02/19 04:02:21;;;;;;;71.07;66.53;;;;;;;4.66;100.00;101280.53;1990632;71;32925;-71
2022/02/19 04:08:06;;;;;;;71.10;66.47;;;;;;;4.64;100.00;101279.38;1996269;71;32839;-73
2022/02/19 04:13:50;;;;;;;70.17;65.73;;;;;;;4.62;100.00;101282.08;2012398;71;32891;-72
2022/02/19 04:19:34;;;;;;;72.77;68.07;;;;;;;4.55;100.00;101296.77;2015732;71;32826;-72
2022/02/19 04:25:19;;;;;;;70.37;65.93;;;;;;;4.55;100.00;101299.52;1999989;71;33268;-74
2022/02/19 04:31:04;;;;;;;69.80;65.27;;;;;;;4.58;100.00;101305.91;2010813;71;32838;-75
2022/02/19 04:36:48;;;;;;;68.93;64.63;;;;;;;4.56;100.00;101308.08;2012307;71;32868;-75
2022/02/19 04:42:34;;;;;;;69.10;64.50;;;;;;;4.44;100.00;101320.95;2014389;71;33512;-71
2022/02/19 04:48:18;;;;;;;68.80;64.23;;;;;;;4.48;100.00;101313.07;2009344;71;32773;-73
2022/02/19 04:54:03;;;;;;;67.87;63.63;;;;;;;4.37;100.00;101310.56;2016257;71;33282;-74
2022/02/19 04:59:47;;;;;;;69.17;64.67;;;;;;;4.47;100.00;101309.48;1991038;71;33083;-72
2022/02/19 05:05:30;;;;;;;69.90;65.30;;;;;;;4.41;100.00;101309.55;2003139;71;32873;-72
2022/02/19 05:11:14;;;;;;;69.20;64.43;;;;;;;4.42;100.00;101312.61;2015940;71;33394;-71
2022/02/19 05:16:58;;;;;;;68.90;64.33;;;;;;;4.38;100.00;101305.38;2008504;71;32960;-72
2022/02/19 05:22:42;;;;;;;70.07;65.40;;;;;;;4.34;100.00;101322.57;1994365;71;32836;-75
2022/02/19 05:28:26;;;;;;;69.53;65.10;;;;;;;4.39;100.00;101327.69;2003212;71;32830;-76
2022/02/19 05:34:11;;;;;;;68.43;63.83;;;;;;;4.38;100.00;101326.53;1994640;71;33264;-76
2022/02/19 05:39:55;;;;;;;68.60;64.10;;;;;;;4.31;100.00;101332.14;2010396;71;32869;-71
2022/02/19 05:45:41;;;;;;;66.37;61.97;;;;;;;4.42;100.00;101321.71;2001889;71;33347;-72
2022/02/19 05:51:25;;;;;;;67.73;63.10;;;;;;;4.37;100.00;101321.56;1994576;70;32783;-71
2022/02/19 05:57:10;;;;;;;68.93;64.23;;;;;;;4.21;100.00;101322.22;2005093;71;32884;-76
2022/02/19 06:02:54;;;;;;;69.83;65.37;;;;;;;4.10;100.00;101325.77;2005465;71;32885;-71
2022/02/19 06:08:38;;;;;;;68.50;63.90;;;;;;;4.13;100.00;101311.01;2007587;71;33237;-71
2022/02/19 06:14:23;;;;;;;65.93;61.63;;;;;;;4.09;100.00;101307.05;2005516;70;32953;-77
2022/02/19 06:20:10;;;;;;;67.07;62.60;;;;;;;4.13;100.00;101305.52;1994604;71;32815;-71
2022/02/19 06:25:54;;;;;;;67.80;62.63;;;;;;;4.01;100.00;101295.00;2016469;71;32923;-74
2022/02/19 06:31:38;;;;;;;67.37;62.90;;;;;;;4.13;100.00;101304.67;1994696;71;33247;-72
2022/02/19 06:37:23;;;;;;;68.10;63.10;;;;;;;4.12;100.00;101308.48;2014364;71;33352;-72
2022/02/19 06:43:07;;;;;;;66.67;61.87;;;;;;;4.13;100.00;101308.80;2016218;71;33403;-75
2022/02/19 06:48:51;;;;;;;66.67;62.30;;;;;;;4.18;100.00;101309.47;1990831;71;33270;-72
2022/02/19 06:54:36;;;;;;;65.57;61.37;;;;;;;4.24;100.00;101309.37;2017582;71;32899;-75
2022/02/19 07:00:21;;;;;;;67.57;63.33;;;;;;;4.27;100.00;101322.67;2011006;71;32942;-71
2022/02/19 07:06:05;;;;;;;66.67;62.37;;;;;;;4.20;100.00;101314.19;2012934;71;33218;-73
2022/02/19 07:11:50;;;;;;;66.63;62.37;;;;;;;4.26;100.00;101334.73;2012894;71;32740;-71
2022/02/19 07:17:34;;;;;;;67.40;63.30;;;;;;;4.17;100.00;101338.87;1997840;71;33359;-74
2022/02/19 07:23:21;;;;;;;69.57;64.87;;;;;;;4.16;100.00;101360.55;2005579;71;32744;-72
2022/02/19 07:29:05;;;;;;;67.07;62.43;;;;;;;4.11;100.00;101357.12;1999415;71;33272;-75
2022/02/19 07:34:50;;;;;;;67.97;63.37;;;;;;;4.17;100.00;101347.12;2010580;71;32826;-71
2022/02/19 07:40:35;;;;;;;65.40;61.00;;;;;;;4.24;100.00;101354.73;1996298;71;32772;-74
2022/02/19 07:46:19;;;;;;;65.90;61.30;;;;;;;4.30;100.00;101332.36;1998399;71;33261;-72
2022/02/19 08:16:29;;;;;;;64.13;60.13;;;;;;;4.53;100.00;101315.44;2003713;71;34053;-71
2022/02/19 08:22:13;;;;;;;65.17;60.93;;;;;;;4.90;100.00;101330.41;2003032;71;32869;-74
2022/02/19 08:27:57;;;;;;;64.10;59.80;;;;;;;5.07;100.00;101320.39;1994440;71;32741;-74
2022/02/19 08:33:41;;;;;;;62.90;59.20;;;;;;;5.28;100.00;101314.30;2017748;71;33234;-74
2022/02/19 08:39:26;;;;;;;65.77;62.00;;;;;;;5.41;100.00;101315.44;2015781;71;33010;-74
2022/02/19 08:45:12;;;;;;;62.20;58.47;;;;;;;5.69;100.00;101337.30;2012478;71;32881;-74
2022/02/19 08:50:59;;;;;;;62.00;58.30;;;;;;;6.02;100.00;101330.61;1994183;70;33335;-75
2022/02/19 08:56:44;;;;;;;59.50;55.60;;;;;;;6.29;100.00;101327.58;2001814;71;33198;-74
2022/02/19 09:02:28;;;;;;;58.43;54.60;;;;;;;6.61;100.00;101306.39;1992992;71;32736;-74
2022/02/19 09:08:12;;;;;;;56.63;53.43;;;;;;;6.73;100.00;101287.30;2005448;71;32745;-71
2022/02/19 09:13:58;;;;;;;59.80;55.93;;;;;;;6.66;100.00;101278.34;2014337;71;32906;-72
2022/02/19 09:19:43;;;;;;;61.90;58.03;;;;;;;6.76;100.00;101261.94;1994516;71;32756;-73
2022/02/19 09:25:28;;;;;;;59.87;56.37;;;;;;;6.82;100.00;101269.78;2016009;71;32807;-72
2022/02/19 09:31:12;;;;;;;63.63;60.00;;;;;;;6.91;100.00;101247.56;1994409;71;32779;-72
2022/02/19 09:36:56;;;;;;;59.07;55.60;;;;;;;7.04;100.00;101242.24;2014053;71;32916;-74
2022/02/19 09:42:42;;;;;;;61.57;57.97;;;;;;;7.16;100.00;101229.16;2008809;71;33384;-74
2022/02/19 09:48:27;;;;;;;60.77;56.87;;;;;;;7.16;100.00;101210.67;2000024;71;32746;-75
2022/02/19 09:54:11;;;;;;;61.40;57.53;;;;;;;7.55;100.00;101234.98;2015886;71;32882;-71
2022/02/19 09:59:55;;;;;;;58.43;55.07;;;;;;;7.68;100.00;101238.76;2014428;71;33420;-75
2022/02/19 10:05:45;;;;;;;60.97;57.10;;;;;;;7.71;100.00;101237.39;2014362;71;32911;-71
2022/02/19 10:11:31;;;;;;;60.63;56.80;;;;;;;7.82;100.00;101233.69;2014072;71;32796;-72
2022/02/19 10:17:18;;;;;;;63.43;59.47;;;;;;;7.88;100.00;101231.25;2003230;71;32962;-75
2022/02/19 10:23:14;;;;;;;62.33;58.53;;;;;;;7.96;100.00;101210.63;2003091;71;32870;-72
2022/02/19 10:29:04;;;;;;;61.60;57.93;;;;;;;7.97;100.00;101187.38;1994835;71;33343;-72
2022/02/19 10:35:02;;;;;;;62.00;58.13;;;;;;;8.00;100.00;101168.90;1997699;71;32809;-72
2022/02/19 10:40:49;;;;;;;59.67;55.90;;;;;;;8.05;100.00;101151.78;2010884;71;32800;-72
2022/02/19 10:46:35;;;;;;;58.97;55.27;;;;;;;8.11;100.00;101130.00;2006955;71;32960;-73
2022/02/19 10:52:27;;;;;;;60.00;56.17;;;;;;;8.19;100.00;101124.53;2005206;71;33329;-72
2022/02/19 10:58:19;;;;;;;60.33;56.40;;;;;;;8.30;100.00;101096.44;1908338;70;33241;-75
2022/02/19 11:04:04;;;;;;;62.47;58.67;;;;;;;8.31;100.00;101071.80;2015999;71;33374;-74
2022/02/19 11:09:49;;;;;;;61.30;57.23;;;;;;;8.45;100.00;101059.18;2011101;71;32826;-75
2022/02/19 11:15:35;;;;;;;60.93;57.23;;;;;;;8.53;100.00;101023.53;2000024;71;32797;-74
2022/02/19 11:21:22;;;;;;;61.43;57.53;;;;;;;8.54;100.00;101013.29;2003193;71;32871;-72
2022/02/19 11:27:10;;;;;;;63.30;59.30;;;;;;;8.60;100.00;101000.58;2009317;71;32738;-72
2022/02/19 11:32:56;;;;;;;62.87;58.50;;;;;;;8.62;100.00;100958.24;2014532;71;32810;-72
2022/02/19 11:38:53;;;;;;;69.60;65.07;;;;;;;8.54;100.00;100957.92;2016154;71;33001;-74
2022/02/19 11:44:50;;;;;;;72.33;67.00;;;;;;;8.19;100.00;100951.05;2005745;71;32926;-75
2022/02/19 11:50:42;;;;;;;73.50;67.80;;;;;;;8.19;100.00;100939.98;1994961;71;33294;-76
2022/02/19 11:56:43;;;;;;;75.53;69.63;;;;;;;8.08;100.00;100935.50;2008826;71;32958;-74
2022/02/19 12:02:29;;;;;;;75.73;69.73;;;;;;;8.01;100.00;100916.89;2011178;71;32818;-75
2022/02/19 12:08:56;;;;;;;71.73;66.13;;;;;;;7.92;100.00;100870.09;2014570;71;33473;-75
2022/02/19 12:14:58;;;;;;;68.93;63.37;;;;;;;7.85;100.00;100834.94;2007225;71;32903;-75
2022/02/19 12:21:00;;;;;;;65.70;60.00;;;;;;;7.86;100.00;100831.08;2014215;71;32935;-75
2022/02/19 12:27:15;;;;;;;66.53;60.90;;;;;;;7.84;100.00;100820.81;2005695;71;32833;-75
2022/02/19 12:33:01;;;;;;;65.73;60.80;;;;;;;7.85;100.00;100811.43;1991207;71;33212;-75
2022/02/19 12:38:55;;;;;;;67.90;62.27;;;;;;;7.79;100.00;100797.28;2005256;71;32888;-76
2022/02/19 12:44:39;;;;;;;64.77;59.10;;;;;;;7.76;100.00;100757.19;2014477;71;33445;-72
2022/02/19 12:50:24;;;;;;;64.43;59.03;;;;;;;7.73;100.00;100765.19;1994754;71;33354;-72
2022/02/19 12:56:09;;;;;;;64.83;59.33;;;;;;;7.78;100.00;100720.98;2016174;71;32853;-71
2022/02/19 13:02:04;;;;;;;66.70;61.40;;;;;;;7.83;100.00;100723.75;2017860;71;32923;-73
2022/02/19 13:07:47;;;;;;;65.27;60.27;;;;;;;7.81;100.00;100676.75;1996640;71;32746;-74
2022/02/19 13:13:39;;;;;;;67.17;61.87;;;;;;;7.88;100.00;100677.31;2011170;71;32744;-73
2022/02/19 13:19:23;;;;;;;63.43;58.20;;;;;;;7.93;100.00;100669.88;2005101;71;32831;-75
2022/02/19 13:25:19;;;;;;;65.27;60.03;;;;;;;8.06;100.00;100654.14;2014309;71;32897;-74
2022/02/19 13:31:08;;;;;;;60.23;55.13;;;;;;;8.13;100.00;100608.22;2003923;71;32888;-74
2022/02/19 13:36:52;;;;;;;61.43;56.23;;;;;;;8.13;100.00;100595.22;1996347;71;32866;-75
2022/02/19 13:42:42;;;;;;;59.67;54.43;;;;;;;8.31;100.00;100574.52;1991120;71;32819;-72
2022/02/19 13:48:33;;;;;;;61.63;56.80;;;;;;;8.34;100.00;100545.48;2000467;71;32738;-73
2022/02/19 13:54:19;;;;;;;59.87;55.23;;;;;;;8.38;100.00;100541.05;2012637;71;32813;-73
2022/02/19 14:00:11;;;;;;;59.73;54.90;;;;;;;8.38;100.00;100543.81;2007066;71;32799;-75
2022/02/19 14:05:54;;;;;;;61.13;56.43;;;;;;;8.60;100.00;100517.45;2009510;71;33282;-73
2022/02/19 14:11:54;;;;;;;61.30;56.20;;;;;;;8.71;100.00;100507.75;1990947;71;32746;-75
2022/02/19 14:17:40;;;;;;;63.43;58.07;;;;;;;8.78;100.00;100502.73;2012607;71;32823;-73
2022/02/19 14:23:28;;;;;;;57.77;52.80;;;;;;;8.89;100.00;100498.84;2014123;71;32807;-73
2022/02/19 14:29:13;;;;;;;59.77;54.97;;;;;;;8.92;100.00;100489.41;2000027;71;32745;-75
2022/02/19 14:34:57;;;;;;;62.07;57.03;;;;;;;9.05;100.00;100492.95;2002049;71;33085;-73
2022/02/19 14:40:41;;;;;;;63.30;58.60;;;;;;;9.19;100.00;100470.17;2016338;71;32810;-73
2022/02/19 14:46:26;;;;;;;70.87;65.63;;;;;;;9.42;100.00;100473.62;2014543;70;33318;-73
2022/02/19 14:52:11;;;;;;;66.83;61.60;;;;;;;9.57;100.00;100454.95;1994607;71;32877;-74
2022/02/19 14:57:56;;;;;;;66.73;61.83;;;;;;;9.66;100.00;100462.10;1999901;71;33350;-73
2022/02/19 15:03:40;;;;;;;69.53;64.47;;;;;;;9.77;100.00;100465.61;1989330;71;32983;-74
2022/02/19 15:09:23;;;;;;;71.10;65.90;;;;;;;9.88;100.00;100486.62;2010994;71;33473;-74
2022/02/19 15:15:11;;;;;;;66.67;61.57;;;;;;;10.04;100.00;100493.14;2010662;71;32909;-74
2022/02/19 15:20:55;;;;;;;67.40;62.10;;;;;;;10.08;100.00;100480.06;1991032;71;33281;-74
2022/02/19 15:26:41;;;;;;;71.27;66.03;;;;;;;10.13;100.00;100478.64;2014506;71;32956;-75
2022/02/19 15:32:28;;;;;;;67.00;62.07;;;;;;;10.36;100.00;100493.14;2008792;71;32978;-72
2022/02/19 15:38:12;;;;;;;71.37;65.80;;;;;;;10.53;100.00;100499.63;2003269;71;32960;-74
2022/02/19 15:43:57;;;;;;;70.07;64.43;;;;;;;10.50;100.00;100495.52;2005681;71;33241;-74
2022/02/19 15:49:43;;;;;;;64.63;59.43;;;;;;;10.57;100.00;100520.17;2009076;71;33411;-75
2022/02/19 15:55:27;;;;;;;65.70;60.40;;;;;;;10.52;100.00;100526.61;2003499;71;32884;-74
2022/02/19 16:01:12;;;;;;;66.27;60.43;;;;;;;10.44;100.00;100512.77;2000276;71;33282;-74
2022/02/19 16:06:56;;;;;;;68.47;63.13;;;;;;;10.41;100.00;100528.64;2005728;71;33278;-73
2022/02/19 16:12:40;;;;;;;71.40;66.10;;;;;;;10.56;100.00;100534.62;2009865;71;33236;-75
2022/02/19 16:18:25;;;;;;;70.50;65.47;;;;;;;10.54;100.00;100537.41;2007451;71;32842;-74
2022/02/19 16:24:10;;;;;;;75.50;70.37;;;;;;;10.45;100.00;100537.20;2005105;71;32901;-74
2022/02/19 16:29:54;;;;;;;71.07;65.50;;;;;;;10.41;100.00;100537.52;2009022;70;33348;-73
2022/02/19 16:35:38;;;;;;;71.33;65.80;;;;;;;10.40;100.00;100544.19;2014714;71;33333;-73
2022/02/19 16:41:24;;;;;;;68.93;63.53;;;;;;;10.40;100.00;100559.45;2017926;71;33015;-73
2022/02/19 16:47:10;;;;;;;74.20;68.03;;;;;;;10.28;100.00;100559.02;1991038;71;30889;-74
2022/02/19 16:52:55;;;;;;;69.17;64.17;;;;;;;10.27;100.00;100559.57;2016025;71;32953;-73
2022/02/19 16:58:40;;;;;;;70.00;65.03;;;;;;;10.18;100.00;100576.60;2005613;71;32849;-74
2022/02/19 17:04:24;;;;;;;68.93;63.63;;;;;;;10.16;100.00;100576.60;2005499;71;32840;-73
2022/02/19 17:10:09;;;;;;;69.80;64.77;;;;;;;10.15;100.00;100599.36;2016025;71;32965;-73
2022/02/19 17:15:54;;;;;;;68.43;63.33;;;;;;;10.14;100.00;100615.70;2003557;71;33327;-73
2022/02/19 17:21:38;;;;;;;66.37;62.07;;;;;;;10.16;100.00;100629.33;1991008;71;32750;-75
2022/02/19 17:27:22;;;;;;;67.87;62.73;;;;;;;10.05;100.00;100643.23;1991135;71;32857;-73
2022/02/19 17:33:06;;;;;;;67.80;62.57;;;;;;;9.97;100.00;100654.11;2005632;71;32763;-73
2022/02/19 17:38:52;;;;;;;66.47;61.87;;;;;;;9.99;100.00;100674.92;2016126;71;33356;-74
2022/02/19 17:44:37;;;;;;;71.57;66.57;;;;;;;9.90;100.00;100702.98;2014487;71;30962;-73
2022/02/19 17:50:23;;;;;;;72.00;66.30;;;;;;;9.79;100.00;100726.90;2003532;71;33452;-74
2022/02/19 17:56:08;;;;;;;70.33;65.37;;;;;;;9.82;100.00;100747.12;2016163;70;33330;-73
2022/02/19 18:01:53;;;;;;;71.63;66.57;;;;;;;9.72;100.00;100768.78;2012939;71;32826;-73
2022/02/19 18:07:37;;;;;;;71.83;66.00;;;;;;;9.67;100.00;100777.70;2014295;71;33502;-74
2022/02/19 18:13:23;;;;;;;74.33;68.50;;;;;;;9.64;100.00;100805.97;2008916;71;32849;-74
2022/02/19 18:19:08;;;;;;;74.33;68.80;;;;;;;9.71;100.00;100831.49;2014599;71;33358;-75
2022/02/19 18:24:53;;;;;;;75.10;69.53;;;;;;;9.69;100.00;100853.95;2016295;71;32901;-75
2022/02/19 18:30:37;;;;;;;72.57;67.20;;;;;;;9.64;100.00;100873.91;2016132;71;34399;-74
2022/02/19 18:36:21;;;;;;;73.73;67.83;;;;;;;9.63;100.00;100883.38;2016314;71;32917;-75
2022/02/19 18:42:06;;;;;;;74.90;69.43;;;;;;;9.60;100.00;100904.98;2003534;71;32918;-72
2022/02/19 18:47:52;;;;;;;70.53;65.57;;;;;;;9.59;100.00;100924.11;1991068;71;33297;-75
2022/02/19 18:53:37;;;;;;;71.23;65.63;;;;;;;9.62;100.00;100933.84;2014328;71;32839;-73
2022/02/19 18:59:22;;;;;;;72.70;67.37;;;;;;;9.49;100.00;100955.17;2014532;71;32940;-76
2022/02/19 19:05:09;;;;;;;72.67;67.30;;;;;;;9.46;100.00;100957.93;2014540;71;32901;-73
2022/02/19 19:10:54;;;;;;;75.03;69.20;;;;;;;9.41;100.00;100985.64;2007394;71;32888;-73
2022/02/19 19:16:38;;;;;;;76.00;70.50;;;;;;;9.42;100.00;101002.56;2012614;71;33030;-74
2022/02/19 19:22:23;;;;;;;77.97;71.60;;;;;;;9.38;100.00;101010.31;2003852;71;32993;-75
2022/02/19 19:28:11;;;;;;;76.87;70.90;;;;;;;9.35;100.00;101013.64;1991119;71;33241;-73
2022/02/19 19:33:54;;;;;;;74.00;68.37;;;;;;;9.22;100.00;101023.85;2005787;71;32821;-75
2022/02/19 19:39:38;;;;;;;78.57;72.20;;;;;;;9.18;100.00;101040.20;2007002;71;32840;-73
2022/02/19 19:45:23;;;;;;;76.73;70.87;;;;;;;9.17;100.00;101047.38;2003609;71;33503;-72
2022/02/19 19:51:07;;;;;;;76.57;70.50;;;;;;;9.09;100.00;101048.20;2000156;71;32845;-73
2022/02/19 19:56:52;;;;;;;76.60;70.90;;;;;;;9.01;100.00;101061.73;2008622;71;32829;-74
2022/02/19 20:02:37;;;;;;;77.37;71.10;;;;;;;8.98;100.00;101083.90;2003854;71;33366;-73
2022/02/19 20:08:23;;;;;;;78.90;72.60;;;;;;;8.87;100.00;101088.25;2012719;71;33502;-75
2022/02/19 20:14:08;;;;;;;78.87;72.43;;;;;;;8.85;100.00;101089.92;2012475;71;32892;-74
2022/02/19 20:19:52;;;;;;;76.93;70.57;;;;;;;8.84;100.00;101104.86;1996683;71;32821;-73
2022/02/19 20:25:37;;;;;;;76.20;70.00;;;;;;;8.81;100.00;101109.56;2010729;71;32988;-73
2022/02/19 20:31:22;;;;;;;77.60;71.00;;;;;;;8.79;100.00;101110.36;2014309;71;33401;-75
2022/02/19 20:37:06;;;;;;;77.80;70.97;;;;;;;8.77;100.00;101120.05;2012327;71;32840;-75
2022/02/19 20:42:50;;;;;;;77.37;70.10;;;;;;;8.75;100.00;101123.62;2000424;71;33248;-76
2022/02/19 20:48:35;;;;;;;76.40;69.60;;;;;;;8.74;100.00;101128.33;1994861;71;33417;-73
2022/02/19 20:54:19;;;;;;;78.70;71.87;;;;;;;8.66;100.00;101131.05;1999698;71;32930;-74
2022/02/19 21:00:04;;;;;;;79.13;71.80;;;;;;;8.65;100.00;101126.60;2014405;71;33364;-73
2022/02/19 21:05:49;;;;;;;79.47;72.60;;;;;;;8.64;100.00;101130.47;2007656;71;32751;-73
2022/02/19 21:11:33;;;;;;;79.87;73.07;;;;;;;8.60;100.00;101134.87;2014520;71;32823;-74
2022/02/19 21:17:18;;;;;;;80.83;73.00;;;;;;;8.70;100.00;101135.50;1996646;71;32868;-74
2022/02/19 21:23:03;;;;;;;78.90;71.97;;;;;;;8.66;100.00;101142.13;1991354;71;33337;-73
2022/02/19 21:28:47;;;;;;;86.60;78.90;;;;;;;8.56;100.00;101148.95;2009394;71;32762;-75
2022/02/19 21:34:31;;;;;;;81.13;73.90;;;;;;;8.59;100.00;101144.84;2014180;71;32823;-74
2022/02/19 21:40:16;;;;;;;79.27;72.50;;;;;;;8.53;100.00;101155.58;2009289;71;32774;-74
2022/02/19 21:46:00;;;;;;;79.00;71.87;;;;;;;8.48;100.00;101160.52;2013010;71;32821;-75
2022/02/19 21:51:44;;;;;;;77.20;70.20;;;;;;;8.49;100.00;101162.20;2016238;71;33264;-73
2022/02/19 21:57:30;;;;;;;77.73;71.13;;;;;;;8.49;100.00;101170.50;2014176;71;33489;-75
2022/02/19 22:03:14;;;;;;;80.27;73.07;;;;;;;8.42;100.00;101163.52;1989323;71;32780;-75
2022/02/19 22:08:58;;;;;;;86.33;78.47;;;;;;;8.32;100.00;101163.42;1994306;71;32950;-75
2022/02/19 22:14:44;;;;;;;79.30;72.57;;;;;;;8.17;100.00;101164.91;2002780;71;33230;-77
2022/02/19 22:20:29;;;;;;;81.30;73.83;;;;;;;8.14;100.00;101168.20;1996586;71;32869;-74
2022/02/19 22:26:14;;;;;;;81.83;74.23;;;;;;;8.08;100.00;101158.74;2016481;71;33416;-73
2022/02/19 22:32:01;;;;;;;74.27;67.43;;;;;;;8.04;100.00;101161.20;2000211;71;33331;-73
2022/02/19 22:37:45;;;;;;;78.97;72.17;;;;;;;8.07;100.00;101172.28;1994828;71;33254;-73
2022/02/19 22:43:29;;;;;;;75.77;69.27;;;;;;;8.03;100.00;101178.89;2014636;71;33448;-72
2022/02/19 22:49:14;;;;;;;78.43;71.73;;;;;;;7.98;100.00;101186.28;1994445;71;32971;-75
2022/02/19 22:54:58;;;;;;;78.23;71.30;;;;;;;8.10;100.00;101173.97;1999787;71;32910;-73
2022/02/19 23:01:11;;;;;;;78.53;71.90;;;;;;;8.09;100.00;101165.92;2002135;71;33357;-75
2022/02/19 23:06:56;;;;;;;77.20;70.30;;;;;;;8.11;100.00;101165.97;2002171;71;33052;-75
2022/02/19 23:12:43;;;;;;;78.80;72.20;;;;;;;8.11;100.00;101156.83;1991218;70;32825;-75
2022/02/19 23:18:27;;;;;;;76.23;70.20;;;;;;;8.11;100.00;101141.06;2010051;71;32828;-75
2022/02/19 23:24:12;;;;;;;77.57;70.90;;;;;;;8.00;100.00;101136.52;2007705;71;33229;-73
2022/02/19 23:29:57;;;;;;;74.03;67.33;;;;;;;8.03;100.00;101131.86;2010714;71;33004;-74
2022/02/19 23:35:42;;;;;;;76.67;70.10;;;;;;;8.21;100.00;101127.30;2009477;71;32785;-75
2022/02/19 23:41:26;;;;;;;74.27;68.00;;;;;;;8.35;100.00;101114.45;1994828;71;33266;-75
2022/02/19 23:47:10;;;;;;;74.00;68.10;;;;;;;8.36;100.00;101117.52;2004125;71;33231;-73
2022/02/19 23:52:55;;;;;;;74.23;68.00;;;;;;;8.32;100.00;101117.75;2005217;71;32834;-74
2022/02/19 23:58:39;;;;;;;73.67;67.27;;;;;;;8.48;100.00;101109.30;2018211;71;33308;-73
